Suceava, Romania
Current Conditions -  °F | °C
As of 7:00 PM on Sunday 25 Jan 2015 (Local Time) from UKLN Reporting Station
Broken Clouds Broken Clouds  
Wind Chill: 32°   Ceiling: 1100
Heat Index: 32°   Visibility: 6mi
Dew Point: 30°   Wind: 0mph
Humidity: 93%   Direction: NA
Pressure: 30.03"   Gusts: NA
Location:  47.65°N, 26.26°E
Report Text: UKLN 251600Z 00000MPS 9999 BKN011 BKN033CB M00/M01 Q1017 15290260 NOSIG
Loading
Personal Weather Stations






























Interactive Weather Map New forecast layout! Learn more

10-Day Weather Forecast

Advertisements
Track Severe Weather on mobile